sensor_id;sensor_type;location;lat;lon;timestamp;temperature;humidity
50162;DHT22;36061;48.116;11.612;2023-04-25T00:00:09;8.50;99.90
50162;DHT22;36061;48.116;11.612;2023-04-25T00:02:39;8.50;99.90
50162;DHT22;36061;48.116;11.612;2023-04-25T00:05:07;8.60;99.90
50162;DHT22;36061;48.116;11.612;2023-04-25T00:07:35;8.60;99.90
50162;DHT22;36061;48.116;11.612;2023-04-25T00:10:05;8.50;99.90
50162;DHT22;36061;48.116;11.612;2023-04-25T00:12:32;8.50;99.90
50162;DHT22;36061;48.116;11.612;2023-04-25T00:14:59;8.60;99.90
50162;DHT22;36061;48.116;11.612;2023-04-25T00:17:26;8.60;99.90
50162;DHT22;36061;48.116;11.612;2023-04-25T00:19:54;8.60;99.90
50162;DHT22;36061;48.116;11.612;2023-04-25T00:22:21;8.50;99.90
50162;DHT22;36061;48.116;11.612;2023-04-25T00:24:49;8.50;99.90
50162;DHT22;36061;48.116;11.612;2023-04-25T00:27:17;8.50;99.90
50162;DHT22;36061;48.116;11.612;2023-04-25T00:29:45;8.50;99.90
50162;DHT22;36061;48.116;11.612;2023-04-25T00:32:12;8.50;99.90
50162;DHT22;36061;48.116;11.612;2023-04-25T00:34:39;8.50;99.90
50162;DHT22;36061;48.116;11.612;2023-04-25T00:37:07;8.50;99.90
50162;DHT22;36061;48.116;11.612;2023-04-25T00:39:34;8.50;99.90
50162;DHT22;36061;48.116;11.612;2023-04-25T00:42:02;8.50;99.90
50162;DHT22;36061;48.116;11.612;2023-04-25T00:44:31;8.60;99.90
50162;DHT22;36061;48.116;11.612;2023-04-25T00:47:00;8.60;99.90
50162;DHT22;36061;48.116;11.612;2023-04-25T00:49:29;8.60;99.90
50162;DHT22;36061;48.116;11.612;2023-04-25T00:51:56;8.60;99.90
50162;DHT22;36061;48.116;11.612;2023-04-25T00:54:23;8.60;99.90
50162;DHT22;36061;48.116;11.612;2023-04-25T00:56:51;8.60;99.90
50162;DHT22;36061;48.116;11.612;2023-04-25T00:59:19;8.60;99.90
50162;DHT22;36061;48.116;11.612;2023-04-25T01:01:48;8.70;99.90
50162;DHT22;36061;48.116;11.612;2023-04-25T01:04:16;8.70;99.90
50162;DHT22;36061;48.116;11.612;2023-04-25T01:06:43;8.60;99.90
50162;DHT22;36061;48.116;11.612;2023-04-25T01:09:10;8.60;99.90
50162;DHT22;36061;48.116;11.612;2023-04-25T01:11:38;8.50;99.90
50162;DHT22;36061;48.116;11.612;2023-04-25T01:14:06;8.50;99.90
50162;DHT22;36061;48.116;11.612;2023-04-25T01:16:33;8.40;99.90
50162;DHT22;36061;48.116;11.612;2023-04-25T01:19:05;8.40;99.90
50162;DHT22;36061;48.116;11.612;2023-04-25T01:21:37;8.40;99.90
50162;DHT22;36061;48.116;11.612;2023-04-25T01:24:04;8.40;99.90
50162;DHT22;36061;48.116;11.612;2023-04-25T01:26:33;8.40;99.90
50162;DHT22;36061;48.116;11.612;2023-04-25T01:29:01;8.40;99.90
50162;DHT22;36061;48.116;11.612;2023-04-25T01:31:28;8.50;99.90
50162;DHT22;36061;48.116;11.612;2023-04-25T01:33:56;8.40;99.90
50162;DHT22;36061;48.116;11.612;2023-04-25T01:36:23;8.40;99.90
50162;DHT22;36061;48.116;11.612;2023-04-25T01:38:52;8.40;99.90
50162;DHT22;36061;48.116;11.612;2023-04-25T01:41:21;8.30;99.90
50162;DHT22;36061;48.116;11.612;2023-04-25T01:43:49;8.30;99.90
50162;DHT22;36061;48.116;11.612;2023-04-25T01:46:17;8.30;99.90
50162;DHT22;36061;48.116;11.612;2023-04-25T01:48:44;8.30;99.90
50162;DHT22;36061;48.116;11.612;2023-04-25T01:51:12;8.30;99.90
50162;DHT22;36061;48.116;11.612;2023-04-25T01:53:39;8.20;99.90
50162;DHT22;36061;48.116;11.612;2023-04-25T01:56:09;8.20;99.90
50162;DHT22;36061;48.116;11.612;2023-04-25T01:58:36;8.20;99.90
50162;DHT22;36061;48.116;11.612;2023-04-25T02:01:10;8.10;99.90
50162;DHT22;36061;48.116;11.612;2023-04-25T02:03:44;8.10;99.90
50162;DHT22;36061;48.116;11.612;2023-04-25T02:06:20;8.10;99.90
50162;DHT22;36061;48.116;11.612;2023-04-25T02:08:48;8.10;99.90
50162;DHT22;36061;48.116;11.612;2023-04-25T02:11:17;8.00;99.90
50162;DHT22;36061;48.116;11.612;2023-04-25T02:13:53;8.10;99.90
50162;DHT22;36061;48.116;11.612;2023-04-25T02:16:35;8.00;99.90
50162;DHT22;36061;48.116;11.612;2023-04-25T02:19:03;8.10;99.90
50162;DHT22;36061;48.116;11.612;2023-04-25T02:21:30;8.00;99.90
50162;DHT22;36061;48.116;11.612;2023-04-25T02:23:58;8.00;99.90
50162;DHT22;36061;48.116;11.612;2023-04-25T02:26:29;8.00;99.90
50162;DHT22;36061;48.116;11.612;2023-04-25T02:28:57;8.00;99.90
50162;DHT22;36061;48.116;11.612;2023-04-25T02:31:24;8.00;99.90
50162;DHT22;36061;48.116;11.612;2023-04-25T02:33:51;8.00;99.90
50162;DHT22;36061;48.116;11.612;2023-04-25T02:36:19;8.00;99.90
50162;DHT22;36061;48.116;11.612;2023-04-25T02:38:48;7.90;99.90
50162;DHT22;36061;48.116;11.612;2023-04-25T02:41:16;7.90;99.90
50162;DHT22;36061;48.116;11.612;2023-04-25T02:43:44;8.00;99.90
50162;DHT22;36061;48.116;11.612;2023-04-25T02:46:11;8.00;99.90
50162;DHT22;36061;48.116;11.612;2023-04-25T02:48:39;8.00;99.90
50162;DHT22;36061;48.116;11.612;2023-04-25T02:51:06;8.00;99.90
50162;DHT22;36061;48.116;11.612;2023-04-25T02:53:33;8.00;99.90
50162;DHT22;36061;48.116;11.612;2023-04-25T02:56:01;8.00;99.90
50162;DHT22;36061;48.116;11.612;2023-04-25T02:58:28;7.90;99.90
50162;DHT22;36061;48.116;11.612;2023-04-25T03:00:56;7.90;99.90
50162;DHT22;36061;48.116;11.612;2023-04-25T03:03:24;7.90;99.90
50162;DHT22;36061;48.116;11.612;2023-04-25T03:05:51;7.90;99.90
50162;DHT22;36061;48.116;11.612;2023-04-25T03:08:26;8.00;99.90
50162;DHT22;36061;48.116;11.612;2023-04-25T03:10:58;8.00;99.90
50162;DHT22;36061;48.116;11.612;2023-04-25T03:13:26;8.00;99.90
50162;DHT22;36061;48.116;11.612;2023-04-25T03:15:57;8.00;99.90
50162;DHT22;36061;48.116;11.612;2023-04-25T03:18:25;8.00;99.90
50162;DHT22;36061;48.116;11.612;2023-04-25T03:20:54;8.00;99.90
50162;DHT22;36061;48.116;11.612;2023-04-25T03:23:21;8.00;99.90
50162;DHT22;36061;48.116;11.612;2023-04-25T03:25:48;8.00;99.90
50162;DHT22;36061;48.116;11.612;2023-04-25T03:28:16;7.90;99.90
50162;DHT22;36061;48.116;11.612;2023-04-25T03:30:43;7.90;99.90
50162;DHT22;36061;48.116;11.612;2023-04-25T03:33:11;7.90;99.90
50162;DHT22;36061;48.116;11.612;2023-04-25T03:35:38;7.90;99.90
50162;DHT22;36061;48.116;11.612;2023-04-25T03:38:06;7.90;99.90
50162;DHT22;36061;48.116;11.612;2023-04-25T03:40:38;7.90;99.90
50162;DHT22;36061;48.116;11.612;2023-04-25T03:43:16;7.90;99.90
50162;DHT22;36061;48.116;11.612;2023-04-25T03:45:50;7.90;99.90
50162;DHT22;36061;48.116;11.612;2023-04-25T03:48:22;7.90;99.90
50162;DHT22;36061;48.116;11.612;2023-04-25T03:50:51;7.90;99.90
50162;DHT22;36061;48.116;11.612;2023-04-25T03:53:18;7.90;99.90
50162;DHT22;36061;48.116;11.612;2023-04-25T03:56:18;7.80;99.90
50162;DHT22;36061;48.116;11.612;2023-04-25T03:58:47;7.80;99.90
50162;DHT22;36061;48.116;11.612;2023-04-25T04:01:19;7.80;99.90
50162;DHT22;36061;48.116;11.612;2023-04-25T04:03:48;7.80;99.90
50162;DHT22;36061;48.116;11.612;2023-04-25T04:06:16;7.80;99.90
50162;DHT22;36061;48.116;11.612;2023-04-25T04:08:48;7.80;99.90
50162;DHT22;36061;48.116;11.612;2023-04-25T04:11:16;7.70;99.90
50162;DHT22;36061;48.116;11.612;2023-04-25T04:13:43;7.70;99.90
50162;DHT22;36061;48.116;11.612;2023-04-25T04:16:10;7.70;99.90
50162;DHT22;36061;48.116;11.612;2023-04-25T04:18:38;7.60;99.90
50162;DHT22;36061;48.116;11.612;2023-04-25T04:21:07;7.60;99.90
50162;DHT22;36061;48.116;11.612;2023-04-25T04:23:37;7.60;99.90
50162;DHT22;36061;48.116;11.612;2023-04-25T04:26:05;7.60;99.90
50162;DHT22;36061;48.116;11.612;2023-04-25T04:29:01;7.50;99.90
50162;DHT22;36061;48.116;11.612;2023-04-25T04:31:41;7.50;99.90
50162;DHT22;36061;48.116;11.612;2023-04-25T04:34:08;7.40;99.90
50162;DHT22;36061;48.116;11.612;2023-04-25T04:36:38;7.50;99.90
50162;DHT22;36061;48.116;11.612;2023-04-25T04:39:07;7.40;99.90
50162;DHT22;36061;48.116;11.612;2023-04-25T04:41:38;7.50;99.90
50162;DHT22;36061;48.116;11.612;2023-04-25T04:44:26;7.50;99.90
50162;DHT22;36061;48.116;11.612;2023-04-25T04:47:10;7.50;99.90
50162;DHT22;36061;48.116;11.612;2023-04-25T04:50:00;7.50;99.90
50162;DHT22;36061;48.116;11.612;2023-04-25T04:53:04;7.50;99.90
50162;DHT22;36061;48.116;11.612;2023-04-25T04:55:52;7.50;99.90
50162;DHT22;36061;48.116;11.612;2023-04-25T04:58:45;7.50;99.90
50162;DHT22;36061;48.116;11.612;2023-04-25T05:01:40;7.40;99.90
50162;DHT22;36061;48.116;11.612;2023-04-25T05:04:42;7.40;99.90
50162;DHT22;36061;48.116;11.612;2023-04-25T05:07:29;7.40;99.90
50162;DHT22;36061;48.116;11.612;2023-04-25T05:10:07;7.50;99.90
50162;DHT22;36061;48.116;11.612;2023-04-25T05:12:53;7.50;99.90
50162;DHT22;36061;48.116;11.612;2023-04-25T05:15:41;7.50;99.90
50162;DHT22;36061;48.116;11.612;2023-04-25T05:18:30;7.60;99.90
50162;DHT22;36061;48.116;11.612;2023-04-25T05:21:06;7.60;99.90
50162;DHT22;36061;48.116;11.612;2023-04-25T05:23:45;7.60;99.90
50162;DHT22;36061;48.116;11.612;2023-04-25T05:26:39;7.60;99.90
50162;DHT22;36061;48.116;11.612;2023-04-25T05:29:22;7.50;99.90
50162;DHT22;36061;48.116;11.612;2023-04-25T05:32:07;7.50;99.90
50162;DHT22;36061;48.116;11.612;2023-04-25T05:34:35;7.50;99.90
50162;DHT22;36061;48.116;11.612;2023-04-25T05:37:05;7.50;99.90
50162;DHT22;36061;48.116;11.612;2023-04-25T05:39:37;7.50;99.90
50162;DHT22;36061;48.116;11.612;2023-04-25T05:42:16;7.50;99.90
50162;DHT22;36061;48.116;11.612;2023-04-25T05:45:02;7.60;99.90
50162;DHT22;36061;48.116;11.612;2023-04-25T05:47:45;7.60;99.90
50162;DHT22;36061;48.116;11.612;2023-04-25T05:50:35;7.60;99.90
50162;DHT22;36061;48.116;11.612;2023-04-25T05:53:38;7.70;99.90
50162;DHT22;36061;48.116;11.612;2023-04-25T05:56:06;7.80;99.90
50162;DHT22;36061;48.116;11.612;2023-04-25T05:58:35;8.00;99.90
50162;DHT22;36061;48.116;11.612;2023-04-25T06:01:02;8.10;99.90
50162;DHT22;36061;48.116;11.612;2023-04-25T06:03:37;8.30;99.90
50162;DHT22;36061;48.116;11.612;2023-04-25T06:06:05;8.60;99.90
50162;DHT22;36061;48.116;11.612;2023-04-25T06:08:32;8.70;99.90
50162;DHT22;36061;48.116;11.612;2023-04-25T06:11:00;8.50;99.90
50162;DHT22;36061;48.116;11.612;2023-04-25T06:13:27;8.40;99.90
50162;DHT22;36061;48.116;11.612;2023-04-25T06:15:56;8.20;99.90
50162;DHT22;36061;48.116;11.612;2023-04-25T06:18:24;7.80;99.90
50162;DHT22;36061;48.116;11.612;2023-04-25T06:20:51;7.50;99.90
50162;DHT22;36061;48.116;11.612;2023-04-25T06:23:18;7.30;99.90
50162;DHT22;36061;48.116;11.612;2023-04-25T06:25:57;7.20;99.90
50162;DHT22;36061;48.116;11.612;2023-04-25T06:28:26;7.00;99.90
50162;DHT22;36061;48.116;11.612;2023-04-25T06:30:53;7.00;99.90
50162;DHT22;36061;48.116;11.612;2023-04-25T06:33:22;7.00;99.90
50162;DHT22;36061;48.116;11.612;2023-04-25T06:35:50;6.90;99.90
50162;DHT22;36061;48.116;11.612;2023-04-25T06:38:23;6.80;99.90
50162;DHT22;36061;48.116;11.612;2023-04-25T06:40:51;6.70;99.90
50162;DHT22;36061;48.116;11.612;2023-04-25T06:43:19;6.70;99.90
50162;DHT22;36061;48.116;11.612;2023-04-25T06:46:12;6.80;99.90
50162;DHT22;36061;48.116;11.612;2023-04-25T06:48:45;6.90;99.90
50162;DHT22;36061;48.116;11.612;2023-04-25T06:51:12;7.10;99.90
50162;DHT22;36061;48.116;11.612;2023-04-25T06:53:40;7.30;99.90
50162;DHT22;36061;48.116;11.612;2023-04-25T06:56:11;7.40;99.90
50162;DHT22;36061;48.116;11.612;2023-04-25T06:58:51;7.50;99.90
50162;DHT22;36061;48.116;11.612;2023-04-25T07:01:39;7.50;99.90
50162;DHT22;36061;48.116;11.612;2023-04-25T07:04:16;7.60;99.90
50162;DHT22;36061;48.116;11.612;2023-04-25T07:06:48;7.70;99.90
50162;DHT22;36061;48.116;11.612;2023-04-25T07:09:20;7.90;99.90
50162;DHT22;36061;48.116;11.612;2023-04-25T07:11:49;8.00;99.90
50162;DHT22;36061;48.116;11.612;2023-04-25T07:14:16;8.10;99.90
50162;DHT22;36061;48.116;11.612;2023-04-25T07:16:44;8.10;99.90
50162;DHT22;36061;48.116;11.612;2023-04-25T07:19:12;8.10;99.90
50162;DHT22;36061;48.116;11.612;2023-04-25T07:21:40;8.10;99.90
50162;DHT22;36061;48.116;11.612;2023-04-25T07:24:08;8.10;99.90
50162;DHT22;36061;48.116;11.612;2023-04-25T07:26:40;8.20;99.90
50162;DHT22;36061;48.116;11.612;2023-04-25T07:29:33;8.20;99.90
50162;DHT22;36061;48.116;11.612;2023-04-25T07:32:03;8.20;99.90
50162;DHT22;36061;48.116;11.612;2023-04-25T07:34:30;8.20;99.90
50162;DHT22;36061;48.116;11.612;2023-04-25T07:36:59;8.20;99.90
50162;DHT22;36061;48.116;11.612;2023-04-25T07:39:33;8.30;99.90
50162;DHT22;36061;48.116;11.612;2023-04-25T07:42:01;8.40;99.90
50162;DHT22;36061;48.116;11.612;2023-04-25T07:44:29;8.50;99.90
50162;DHT22;36061;48.116;11.612;2023-04-25T07:46:57;8.60;99.90
50162;DHT22;36061;48.116;11.612;2023-04-25T07:49:24;8.80;99.90
50162;DHT22;36061;48.116;11.612;2023-04-25T07:51:52;9.00;99.90
50162;DHT22;36061;48.116;11.612;2023-04-25T07:54:21;9.10;99.90
50162;DHT22;36061;48.116;11.612;2023-04-25T07:56:56;9.30;99.90
50162;DHT22;36061;48.116;11.612;2023-04-25T07:59:28;9.50;99.90
50162;DHT22;36061;48.116;11.612;2023-04-25T08:01:55;9.70;99.90
50162;DHT22;36061;48.116;11.612;2023-04-25T08:04:24;9.80;99.90
50162;DHT22;36061;48.116;11.612;2023-04-25T08:06:57;9.80;99.90
50162;DHT22;36061;48.116;11.612;2023-04-25T08:09:29;9.70;99.90
50162;DHT22;36061;48.116;11.612;2023-04-25T08:12:00;9.80;99.90
50162;DHT22;36061;48.116;11.612;2023-04-25T08:14:31;9.90;99.90
50162;DHT22;36061;48.116;11.612;2023-04-25T08:17:02;9.90;99.90
50162;DHT22;36061;48.116;11.612;2023-04-25T08:19:32;10.00;99.90
50162;DHT22;36061;48.116;11.612;2023-04-25T08:21:59;10.10;99.90
50162;DHT22;36061;48.116;11.612;2023-04-25T08:24:37;10.20;99.90
50162;DHT22;36061;48.116;11.612;2023-04-25T08:27:05;10.30;99.90
50162;DHT22;36061;48.116;11.612;2023-04-25T08:29:33;10.30;99.90
50162;DHT22;36061;48.116;11.612;2023-04-25T08:32:01;10.40;99.90
50162;DHT22;36061;48.116;11.612;2023-04-25T08:34:29;10.40;99.90
50162;DHT22;36061;48.116;11.612;2023-04-25T08:36:59;10.40;99.90
50162;DHT22;36061;48.116;11.612;2023-04-25T08:39:46;10.40;99.90
50162;DHT22;36061;48.116;11.612;2023-04-25T08:42:33;10.30;99.90
50162;DHT22;36061;48.116;11.612;2023-04-25T08:45:03;10.20;99.90
50162;DHT22;36061;48.116;11.612;2023-04-25T08:47:35;10.20;99.90
50162;DHT22;36061;48.116;11.612;2023-04-25T08:50:06;10.30;99.90
50162;DHT22;36061;48.116;11.612;2023-04-25T08:52:36;10.40;99.90
50162;DHT22;36061;48.116;11.612;2023-04-25T08:55:07;10.60;99.90
50162;DHT22;36061;48.116;11.612;2023-04-25T08:57:38;10.60;99.90
50162;DHT22;36061;48.116;11.612;2023-04-25T09:00:07;10.80;99.90
50162;DHT22;36061;48.116;11.612;2023-04-25T09:02:36;10.90;99.90
50162;DHT22;36061;48.116;11.612;2023-04-25T09:05:05;11.10;99.90
50162;DHT22;36061;48.116;11.612;2023-04-25T09:07:32;11.20;99.90
50162;DHT22;36061;48.116;11.612;2023-04-25T09:10:00;11.40;99.90
50162;DHT22;36061;48.116;11.612;2023-04-25T09:12:33;11.60;99.90
50162;DHT22;36061;48.116;11.612;2023-04-25T09:15:05;11.70;99.90
50162;DHT22;36061;48.116;11.612;2023-04-25T09:17:59;11.70;99.90
50162;DHT22;36061;48.116;11.612;2023-04-25T09:20:41;11.70;99.90
50162;DHT22;36061;48.116;11.612;2023-04-25T09:23:09;11.70;99.90
50162;DHT22;36061;48.116;11.612;2023-04-25T09:25:38;11.90;99.90
50162;DHT22;36061;48.116;11.612;2023-04-25T09:28:08;12.00;99.90
50162;DHT22;36061;48.116;11.612;2023-04-25T09:30:36;12.00;99.90
50162;DHT22;36061;48.116;11.612;2023-04-25T09:33:11;12.20;99.90
50162;DHT22;36061;48.116;11.612;2023-04-25T09:35:43;12.30;99.90
50162;DHT22;36061;48.116;11.612;2023-04-25T09:38:22;12.40;99.90
50162;DHT22;36061;48.116;11.612;2023-04-25T09:40:52;12.50;99.90
50162;DHT22;36061;48.116;11.612;2023-04-25T09:43:29;12.40;99.90
50162;DHT22;36061;48.116;11.612;2023-04-25T09:45:56;12.10;99.90
50162;DHT22;36061;48.116;11.612;2023-04-25T09:48:27;12.00;99.90
50162;DHT22;36061;48.116;11.612;2023-04-25T09:51:06;11.90;99.90
50162;DHT22;36061;48.116;11.612;2023-04-25T09:53:34;11.80;99.90
50162;DHT22;36061;48.116;11.612;2023-04-25T09:56:12;11.80;99.90
50162;DHT22;36061;48.116;11.612;2023-04-25T09:58:42;11.90;99.90
50162;DHT22;36061;48.116;11.612;2023-04-25T10:01:10;11.90;99.90
50162;DHT22;36061;48.116;11.612;2023-04-25T10:04:02;12.00;99.90
50162;DHT22;36061;48.116;11.612;2023-04-25T10:06:41;12.00;99.90
50162;DHT22;36061;48.116;11.612;2023-04-25T10:09:11;12.00;99.90
50162;DHT22;36061;48.116;11.612;2023-04-25T10:11:39;12.00;99.90
50162;DHT22;36061;48.116;11.612;2023-04-25T10:14:09;12.10;99.90
50162;DHT22;36061;48.116;11.612;2023-04-25T10:16:36;12.10;99.90
50162;DHT22;36061;48.116;11.612;2023-04-25T10:19:04;12.10;99.90
50162;DHT22;36061;48.116;11.612;2023-04-25T10:21:32;12.10;99.90
50162;DHT22;36061;48.116;11.612;2023-04-25T10:24:00;12.10;99.90
50162;DHT22;36061;48.116;11.612;2023-04-25T10:26:29;12.10;99.90
50162;DHT22;36061;48.116;11.612;2023-04-25T10:28:57;12.20;99.90
50162;DHT22;36061;48.116;11.612;2023-04-25T10:31:27;12.20;99.90
50162;DHT22;36061;48.116;11.612;2023-04-25T10:33:56;12.40;99.90
50162;DHT22;36061;48.116;11.612;2023-04-25T10:36:24;12.60;99.90
50162;DHT22;36061;48.116;11.612;2023-04-25T10:38:53;12.70;99.90
50162;DHT22;36061;48.116;11.612;2023-04-25T10:41:21;12.70;99.90
50162;DHT22;36061;48.116;11.612;2023-04-25T10:43:49;12.70;99.90
50162;DHT22;36061;48.116;11.612;2023-04-25T10:46:27;12.50;99.90
50162;DHT22;36061;48.116;11.612;2023-04-25T10:48:57;12.00;99.90
50162;DHT22;36061;48.116;11.612;2023-04-25T10:51:26;11.30;99.90
50162;DHT22;36061;48.116;11.612;2023-04-25T10:54:01;10.60;99.90
50162;DHT22;36061;48.116;11.612;2023-04-25T10:56:29;10.00;99.90
50162;DHT22;36061;48.116;11.612;2023-04-25T10:59:05;9.70;99.90
50162;DHT22;36061;48.116;11.612;2023-04-25T11:01:38;9.50;99.90
50162;DHT22;36061;48.116;11.612;2023-04-25T11:04:06;9.40;99.90
50162;DHT22;36061;48.116;11.612;2023-04-25T11:06:55;9.40;99.90
50162;DHT22;36061;48.116;11.612;2023-04-25T11:09:25;9.50;99.90
50162;DHT22;36061;48.116;11.612;2023-04-25T11:11:54;9.60;99.90
50162;DHT22;36061;48.116;11.612;2023-04-25T11:14:22;9.70;99.90
50162;DHT22;36061;48.116;11.612;2023-04-25T11:16:54;9.80;99.90
50162;DHT22;36061;48.116;11.612;2023-04-25T11:19:23;9.90;99.90
50162;DHT22;36061;48.116;11.612;2023-04-25T11:21:50;10.00;99.90
50162;DHT22;36061;48.116;11.612;2023-04-25T11:24:18;10.20;99.90
50162;DHT22;36061;48.116;11.612;2023-04-25T11:26:47;10.30;99.90
50162;DHT22;36061;48.116;11.612;2023-04-25T11:29:14;10.30;99.90
50162;DHT22;36061;48.116;11.612;2023-04-25T11:31:43;10.30;99.90
50162;DHT22;36061;48.116;11.612;2023-04-25T11:34:17;10.30;99.90
50162;DHT22;36061;48.116;11.612;2023-04-25T11:36:44;10.30;99.90
50162;DHT22;36061;48.116;11.612;2023-04-25T11:39:12;10.30;99.90
50162;DHT22;36061;48.116;11.612;2023-04-25T11:41:41;10.30;99.90
50162;DHT22;36061;48.116;11.612;2023-04-25T11:44:08;10.30;99.90
50162;DHT22;36061;48.116;11.612;2023-04-25T11:46:36;10.20;99.90
50162;DHT22;36061;48.116;11.612;2023-04-25T11:49:04;9.90;99.90
50162;DHT22;36061;48.116;11.612;2023-04-25T11:51:39;9.70;99.90
50162;DHT22;36061;48.116;11.612;2023-04-25T11:54:07;9.50;99.90
50162;DHT22;36061;48.116;11.612;2023-04-25T11:56:34;9.40;99.90
50162;DHT22;36061;48.116;11.612;2023-04-25T11:59:03;9.40;99.90
50162;DHT22;36061;48.116;11.612;2023-04-25T12:01:31;9.30;99.90
50162;DHT22;36061;48.116;11.612;2023-04-25T12:04:10;9.30;99.90
50162;DHT22;36061;48.116;11.612;2023-04-25T12:06:40;9.20;99.90
50162;DHT22;36061;48.116;11.612;2023-04-25T12:09:08;9.10;99.90
50162;DHT22;36061;48.116;11.612;2023-04-25T12:11:41;9.10;99.90
50162;DHT22;36061;48.116;11.612;2023-04-25T12:14:09;9.10;99.90
50162;DHT22;36061;48.116;11.612;2023-04-25T12:16:41;9.20;99.90
50162;DHT22;36061;48.116;11.612;2023-04-25T12:19:09;9.10;99.90
50162;DHT22;36061;48.116;11.612;2023-04-25T12:21:36;9.00;99.90
50162;DHT22;36061;48.116;11.612;2023-04-25T12:24:12;8.90;99.90
50162;DHT22;36061;48.116;11.612;2023-04-25T12:26:47;9.00;99.90
50162;DHT22;36061;48.116;11.612;2023-04-25T12:29:18;8.90;99.90
50162;DHT22;36061;48.116;11.612;2023-04-25T12:31:46;8.90;99.90
50162;DHT22;36061;48.116;11.612;2023-04-25T12:34:14;8.90;99.90
50162;DHT22;36061;48.116;11.612;2023-04-25T12:36:41;8.80;99.90
50162;DHT22;36061;48.116;11.612;2023-04-25T12:39:09;8.80;99.90
50162;DHT22;36061;48.116;11.612;2023-04-25T12:41:42;8.80;99.90
50162;DHT22;36061;48.116;11.612;2023-04-25T12:44:10;8.80;99.90
50162;DHT22;36061;48.116;11.612;2023-04-25T12:46:38;8.80;99.90
50162;DHT22;36061;48.116;11.612;2023-04-25T12:49:05;8.80;99.90
50162;DHT22;36061;48.116;11.612;2023-04-25T12:51:33;8.90;99.90
50162;DHT22;36061;48.116;11.612;2023-04-25T12:54:00;8.90;99.90
50162;DHT22;36061;48.116;11.612;2023-04-25T12:56:28;9.00;99.90
50162;DHT22;36061;48.116;11.612;2023-04-25T12:58:56;9.10;99.90
50162;DHT22;36061;48.116;11.612;2023-04-25T13:01:24;9.20;99.90
50162;DHT22;36061;48.116;11.612;2023-04-25T13:03:52;9.20;99.90
50162;DHT22;36061;48.116;11.612;2023-04-25T13:06:20;9.00;99.90
50162;DHT22;36061;48.116;11.612;2023-04-25T13:08:48;9.00;99.90
50162;DHT22;36061;48.116;11.612;2023-04-25T13:11:15;9.00;99.90
50162;DHT22;36061;48.116;11.612;2023-04-25T13:13:43;9.00;99.90
50162;DHT22;36061;48.116;11.612;2023-04-25T13:16:11;9.00;99.90
50162;DHT22;36061;48.116;11.612;2023-04-25T13:18:41;9.00;99.90
50162;DHT22;36061;48.116;11.612;2023-04-25T13:21:09;9.00;99.90
50162;DHT22;36061;48.116;11.612;2023-04-25T13:23:37;8.90;99.90
50162;DHT22;36061;48.116;11.612;2023-04-25T13:26:05;8.80;99.90
50162;DHT22;36061;48.116;11.612;2023-04-25T13:28:32;8.80;99.90
50162;DHT22;36061;48.116;11.612;2023-04-25T13:30:59;8.70;99.90
50162;DHT22;36061;48.116;11.612;2023-04-25T13:33:28;8.70;99.90
50162;DHT22;36061;48.116;11.612;2023-04-25T13:35:55;8.60;99.90
50162;DHT22;36061;48.116;11.612;2023-04-25T13:38:24;8.60;99.90
50162;DHT22;36061;48.116;11.612;2023-04-25T13:40:52;8.60;99.90
50162;DHT22;36061;48.116;11.612;2023-04-25T13:43:20;8.70;99.90
50162;DHT22;36061;48.116;11.612;2023-04-25T13:45:47;8.70;99.90
50162;DHT22;36061;48.116;11.612;2023-04-25T13:48:15;8.70;99.90
50162;DHT22;36061;48.116;11.612;2023-04-25T13:50:43;8.80;99.90
50162;DHT22;36061;48.116;11.612;2023-04-25T13:53:10;8.70;99.90
50162;DHT22;36061;48.116;11.612;2023-04-25T13:55:38;8.70;99.90
50162;DHT22;36061;48.116;11.612;2023-04-25T13:58:05;8.60;99.90
50162;DHT22;36061;48.116;11.612;2023-04-25T14:00:36;8.50;99.90
50162;DHT22;36061;48.116;11.612;2023-04-25T14:03:04;8.40;99.90
50162;DHT22;36061;48.116;11.612;2023-04-25T14:05:34;8.40;99.90
50162;DHT22;36061;48.116;11.612;2023-04-25T14:08:06;8.40;99.90
50162;DHT22;36061;48.116;11.612;2023-04-25T14:10:33;8.40;99.90
50162;DHT22;36061;48.116;11.612;2023-04-25T14:13:01;8.40;99.90
50162;DHT22;36061;48.116;11.612;2023-04-25T14:15:30;8.30;99.90
50162;DHT22;36061;48.116;11.612;2023-04-25T14:17:57;8.40;99.90
50162;DHT22;36061;48.116;11.612;2023-04-25T14:20:24;8.40;99.90
50162;DHT22;36061;48.116;11.612;2023-04-25T14:22:52;8.60;99.90
50162;DHT22;36061;48.116;11.612;2023-04-25T14:25:21;8.50;99.90
50162;DHT22;36061;48.116;11.612;2023-04-25T14:27:49;8.50;99.90
50162;DHT22;36061;48.116;11.612;2023-04-25T14:30:17;8.50;99.90
50162;DHT22;36061;48.116;11.612;2023-04-25T14:32:44;8.50;99.90
50162;DHT22;36061;48.116;11.612;2023-04-25T14:35:15;8.40;99.90
50162;DHT22;36061;48.116;11.612;2023-04-25T14:37:42;8.30;99.90
50162;DHT22;36061;48.116;11.612;2023-04-25T14:40:10;8.30;99.90
50162;DHT22;36061;48.116;11.612;2023-04-25T14:42:40;8.40;99.90
50162;DHT22;36061;48.116;11.612;2023-04-25T14:45:09;8.50;99.90
50162;DHT22;36061;48.116;11.612;2023-04-25T14:47:36;8.60;99.90
50162;DHT22;36061;48.116;11.612;2023-04-25T14:50:05;8.60;99.90
50162;DHT22;36061;48.116;11.612;2023-04-25T14:52:32;8.70;99.90
50162;DHT22;36061;48.116;11.612;2023-04-25T14:54:59;8.70;99.90
50162;DHT22;36061;48.116;11.612;2023-04-25T14:57:30;8.80;99.90
50162;DHT22;36061;48.116;11.612;2023-04-25T14:59:59;8.90;99.90
50162;DHT22;36061;48.116;11.612;2023-04-25T15:02:27;8.90;99.90
50162;DHT22;36061;48.116;11.612;2023-04-25T15:04:54;8.90;99.90
50162;DHT22;36061;48.116;11.612;2023-04-25T15:07:22;8.90;99.90
50162;DHT22;36061;48.116;11.612;2023-04-25T15:09:49;9.10;99.90
50162;DHT22;36061;48.116;11.612;2023-04-25T15:12:19;9.10;99.90
50162;DHT22;36061;48.116;11.612;2023-04-25T15:14:46;9.10;99.90
50162;DHT22;36061;48.116;11.612;2023-04-25T15:17:15;9.10;99.90
50162;DHT22;36061;48.116;11.612;2023-04-25T15:19:42;9.20;99.90
50162;DHT22;36061;48.116;11.612;2023-04-25T15:22:09;9.20;99.90
50162;DHT22;36061;48.116;11.612;2023-04-25T15:24:37;9.20;99.90
50162;DHT22;36061;48.116;11.612;2023-04-25T15:27:04;9.20;99.90
50162;DHT22;36061;48.116;11.612;2023-04-25T15:29:32;9.20;99.90
50162;DHT22;36061;48.116;11.612;2023-04-25T15:31:59;9.10;99.90
50162;DHT22;36061;48.116;11.612;2023-04-25T15:34:27;9.10;99.90
50162;DHT22;36061;48.116;11.612;2023-04-25T15:36:54;9.10;99.90
50162;DHT22;36061;48.116;11.612;2023-04-25T15:39:23;9.00;99.90
50162;DHT22;36061;48.116;11.612;2023-04-25T15:41:50;9.00;99.90
50162;DHT22;36061;48.116;11.612;2023-04-25T15:44:17;9.00;99.90
50162;DHT22;36061;48.116;11.612;2023-04-25T15:46:45;9.00;99.90
50162;DHT22;36061;48.116;11.612;2023-04-25T15:49:12;9.10;99.90